UUDD

Domodedovo International Airport

Moscow, Russian Federation
TAF UUDD 241657Z 2418/2524 17008G13MPS 5000 -RA FEW005 OVC008 TX10/2512Z TN07/2506Z TEMPO 2418/2504 22013G18MPS 3100 -SHRA OVC004 SCT012CB FM250400 27010MPS 8000 BKN011 TEMPO 2504/2518 29015G20MPS 1200 SHRA SCT005 BKN015CB PROB40 TEMPO 2504/2515 -TSRA SCT015CB
Issued Valid From Valid To
Sep-24 @ 16:57 UTC
(3 hours ago)
Sep-24 @ 18:00 UTC
(an hour ago)
Sep-26 @ 00:00 UTC
(-1 days ago)
Sep-24 @ 18:00 to Sep-25 @ 04:00
TAF UUDD 241657Z 2418/2524 17008G13MPS 5000 -RA FEW005 OVC008 TX10/2512Z TN07/2506Z
Wind Visibility Clouds Conditions
170° at 16 knots
 Gusting to 25 knots
5,005 meters
  • Few at 500' AGL
  • Overcast at 800' AGL
  • Light Rain
Temporary Sep-24 @ 18:00 to Sep-25 @ 04:00
TEMPO 2418/2504 22013G18MPS 3100 -SHRA OVC004 SCT012CB
Wind Visibility Clouds Conditions
220° at 25 knots
 Gusting to 35 knots
3,106 meters
  • Overcast at 400' AGL
  • Scattered at 1,200' AGL
  • Light Rain
Temporary  (Probability 40%) Sep-25 @ 04:00 to Sep-25 @ 15:00
PROB40 TEMPO 2504/2515 -TSRA SCT015CB
Clouds Conditions
  • Scattered at 1,500' AGL
  • Light Thunderstorm
  • Light Rain
Temporary Sep-25 @ 04:00 to Sep-25 @ 18:00
TEMPO 2504/2518 29015G20MPS 1200 SHRA SCT005 BKN015CB
Wind Visibility Clouds Conditions
290° at 29 knots
 Gusting to 39 knots
1,207 meters
  • Scattered at 500' AGL
  • Broken at 1,500' AGL
  • Rain
From Sep-25 @ 04:00 to Sep-26 @ 00:00
FM250400 27010MPS 8000 BKN011
Wind Visibility Clouds
270° at 19 knots 7,998 meters
  • Broken at 1,100' AGL
TAF UUDD 241657Z 2418/2524 17008G13MPS 5000 -RA FEW005 OVC008 TX10/2512Z TN07/2506Z TEMPO 2418/2504 22013G18MPS 3100 -SHRA OVC004 SCT012CB FM250400 27010MPS 8000 BKN011 TEMPO 2504/2518 29015G20MPS 1200 SHRA SCT005 BKN015CB PROB40 TEMPO 2504/2515 -TSRA SCT015CB
Issued Sep-24 @ 16:57 UTC
(3 hours ago)
Valid From Sep-24 @ 18:00 UTC
(an hour ago)
Valid To Sep-26 @ 00:00 UTC
(-1 days ago)
Sep-24 @ 18:00 - Sep-25 @ 04:00
Wind Visibility
170° at 16 knots
 Gusting to 25 knots
5,005 meters
Clouds
  • Few at 500' AGL
  • Overcast at 800' AGL
Conditions
  • Light Rain
Temporary Sep-24 @ 18:00 - Sep-25 @ 04:00
Wind Visibility
220° at 25 knots
 Gusting to 35 knots
3,106 meters
Clouds
  • Overcast at 400' AGL
  • Scattered at 1,200' AGL
Conditions
  • Light Rain
Probability 40% Temporary Sep-25 @ 04:00 - Sep-25 @ 15:00
Clouds
  • Scattered at 1,500' AGL
Conditions
  • Light Thunderstorm
  • Light Rain
Temporary Sep-25 @ 04:00 - Sep-25 @ 18:00
Wind Visibility
290° at 29 knots
 Gusting to 39 knots
1,207 meters
Clouds
  • Scattered at 500' AGL
  • Broken at 1,500' AGL
Conditions
  • Rain
From Sep-25 @ 04:00 - Sep-26 @ 00:00
Wind Visibility
270° at 19 knots 7,998 meters
Clouds
  • Broken at 1,100' AGL